sensor_id;sensor_type;location;lat;lon;timestamp;pressure;altitude;pressure_sealevel;temperature;humidity
55916;BME280;41826;53.246;-6.670;2023-04-30T00:00:49;100001.41;;;13.24;100.00
55916;BME280;41826;53.246;-6.670;2023-04-30T00:03:15;100036.84;;;13.68;100.00
55916;BME280;41826;53.246;-6.670;2023-04-30T00:05:40;100042.13;;;13.30;100.00
55916;BME280;41826;53.246;-6.670;2023-04-30T00:08:05;100047.81;;;13.56;100.00
55916;BME280;41826;53.246;-6.670;2023-04-30T00:10:31;100146.16;;;13.11;100.00
55916;BME280;41826;53.246;-6.670;2023-04-30T00:12:56;100201.84;;;13.39;100.00
55916;BME280;41826;53.246;-6.670;2023-04-30T00:15:22;100202.16;;;13.44;100.00
55916;BME280;41826;53.246;-6.670;2023-04-30T00:17:47;100204.28;;;13.49;100.00
55916;BME280;41826;53.246;-6.670;2023-04-30T00:20:12;100248.75;;;13.52;100.00
55916;BME280;41826;53.246;-6.670;2023-04-30T00:22:38;100357.59;;;13.29;100.00
55916;BME280;41826;53.246;-6.670;2023-04-30T00:25:03;100421.53;;;13.31;100.00
55916;BME280;41826;53.246;-6.670;2023-04-30T00:27:29;100606.53;;;13.10;100.00
55916;BME280;41826;53.246;-6.670;2023-04-30T00:29:56;100814.72;;;13.02;100.00
55916;BME280;41826;53.246;-6.670;2023-04-30T00:32:21;100772.94;;;13.23;100.00
55916;BME280;41826;53.246;-6.670;2023-04-30T00:34:46;100847.44;;;13.26;100.00
55916;BME280;41826;53.246;-6.670;2023-04-30T00:37:12;100948.16;;;12.85;100.00
55916;BME280;41826;53.246;-6.670;2023-04-30T00:39:37;101044.31;;;12.99;100.00
55916;BME280;41826;53.246;-6.670;2023-04-30T00:42:03;101104.00;;;12.90;100.00
55916;BME280;41826;53.246;-6.670;2023-04-30T00:44:29;101155.00;;;12.99;100.00
55916;BME280;41826;53.246;-6.670;2023-04-30T00:46:54;101173.84;;;13.22;100.00
55916;BME280;41826;53.246;-6.670;2023-04-30T00:49:20;101181.22;;;13.18;100.00
55916;BME280;41826;53.246;-6.670;2023-04-30T00:51:45;101176.50;;;12.94;100.00
55916;BME280;41826;53.246;-6.670;2023-04-30T00:54:11;101214.69;;;12.80;100.00
55916;BME280;41826;53.246;-6.670;2023-04-30T00:56:37;101306.47;;;12.95;100.00
55916;BME280;41826;53.246;-6.670;2023-04-30T00:59:02;101385.00;;;12.82;100.00
55916;BME280;41826;53.246;-6.670;2023-04-30T01:01:28;101484.81;;;12.55;100.00
55916;BME280;41826;53.246;-6.670;2023-04-30T01:03:54;101546.94;;;12.68;100.00
55916;BME280;41826;53.246;-6.670;2023-04-30T01:06:19;101594.34;;;12.58;100.00
55916;BME280;41826;53.246;-6.670;2023-04-30T01:08:47;101620.72;;;12.68;100.00
55916;BME280;41826;53.246;-6.670;2023-04-30T01:11:27;101624.91;;;12.80;100.00
55916;BME280;41826;53.246;-6.670;2023-04-30T01:14:09;101641.13;;;12.75;100.00
55916;BME280;41826;53.246;-6.670;2023-04-30T01:16:42;101662.66;;;12.90;100.00
55916;BME280;41826;53.246;-6.670;2023-04-30T01:21:51;101634.94;;;12.55;100.00
55916;BME280;41826;53.246;-6.670;2023-04-30T01:30:22;101845.94;;;12.73;100.00
55916;BME280;41826;53.246;-6.670;2023-04-30T01:32:48;101818.69;;;12.84;100.00
55916;BME280;41826;53.246;-6.670;2023-04-30T01:35:13;101820.22;;;12.66;100.00
55916;BME280;41826;53.246;-6.670;2023-04-30T01:40:23;101827.44;;;12.85;100.00
55916;BME280;41826;53.246;-6.670;2023-04-30T01:46:29;101799.59;;;12.71;100.00
55916;BME280;41826;53.246;-6.670;2023-04-30T01:49:29;101825.84;;;12.51;100.00
55916;BME280;41826;53.246;-6.670;2023-04-30T01:52:11;101907.22;;;12.54;100.00
55916;BME280;41826;53.246;-6.670;2023-04-30T01:54:52;101963.06;;;12.48;100.00
55916;BME280;41826;53.246;-6.670;2023-04-30T01:57:29;101987.44;;;12.62;100.00
55916;BME280;41826;53.246;-6.670;2023-04-30T01:59:56;101986.91;;;12.79;100.00
55916;BME280;41826;53.246;-6.670;2023-04-30T02:02:22;101937.06;;;12.76;100.00
55916;BME280;41826;53.246;-6.670;2023-04-30T02:04:47;101904.75;;;12.74;100.00
55916;BME280;41826;53.246;-6.670;2023-04-30T02:10:02;101877.22;;;12.88;100.00
55916;BME280;41826;53.246;-6.670;2023-04-30T02:12:27;101798.66;;;13.02;100.00
55916;BME280;41826;53.246;-6.670;2023-04-30T02:14:54;101756.63;;;12.70;100.00
55916;BME280;41826;53.246;-6.670;2023-04-30T02:17:20;101766.97;;;12.93;100.00
55916;BME280;41826;53.246;-6.670;2023-04-30T02:19:45;101742.13;;;12.86;100.00
55916;BME280;41826;53.246;-6.670;2023-04-30T02:22:10;101767.03;;;12.72;100.00
55916;BME280;41826;53.246;-6.670;2023-04-30T02:24:36;101722.94;;;12.74;100.00
55916;BME280;41826;53.246;-6.670;2023-04-30T02:27:01;101752.00;;;12.63;100.00
55916;BME280;41826;53.246;-6.670;2023-04-30T02:29:26;101762.25;;;12.56;100.00
55916;BME280;41826;53.246;-6.670;2023-04-30T02:31:52;101806.69;;;12.49;100.00
55916;BME280;41826;53.246;-6.670;2023-04-30T02:34:17;101834.75;;;12.60;100.00
55916;BME280;41826;53.246;-6.670;2023-04-30T02:36:43;101841.66;;;12.51;100.00
55916;BME280;41826;53.246;-6.670;2023-04-30T02:39:08;101870.25;;;12.56;100.00
55916;BME280;41826;53.246;-6.670;2023-04-30T02:41:33;101792.13;;;12.76;100.00
55916;BME280;41826;53.246;-6.670;2023-04-30T02:43:59;101725.91;;;12.90;100.00
55916;BME280;41826;53.246;-6.670;2023-04-30T02:46:24;101645.72;;;12.83;100.00
55916;BME280;41826;53.246;-6.670;2023-04-30T02:48:50;101628.53;;;12.79;100.00
55916;BME280;41826;53.246;-6.670;2023-04-30T02:51:15;101606.72;;;12.67;100.00
55916;BME280;41826;53.246;-6.670;2023-04-30T02:53:40;101599.84;;;12.45;100.00
55916;BME280;41826;53.246;-6.670;2023-04-30T02:56:06;101667.09;;;12.49;100.00
55916;BME280;41826;53.246;-6.670;2023-04-30T02:58:32;101687.94;;;12.62;100.00
55916;BME280;41826;53.246;-6.670;2023-04-30T03:00:58;101693.06;;;12.54;100.00
55916;BME280;41826;53.246;-6.670;2023-04-30T03:03:24;101717.25;;;12.48;100.00
55916;BME280;41826;53.246;-6.670;2023-04-30T03:05:50;101755.44;;;12.53;100.00
55916;BME280;41826;53.246;-6.670;2023-04-30T03:08:15;101798.78;;;12.49;100.00
55916;BME280;41826;53.246;-6.670;2023-04-30T03:10:41;101777.00;;;12.47;100.00
55916;BME280;41826;53.246;-6.670;2023-04-30T03:13:06;101791.44;;;12.53;100.00
55916;BME280;41826;53.246;-6.670;2023-04-30T03:15:32;101759.59;;;12.56;100.00
55916;BME280;41826;53.246;-6.670;2023-04-30T03:17:57;101784.72;;;12.39;100.00
55916;BME280;41826;53.246;-6.670;2023-04-30T03:20:23;101804.88;;;12.29;100.00
55916;BME280;41826;53.246;-6.670;2023-04-30T03:22:48;101834.03;;;12.37;100.00
55916;BME280;41826;53.246;-6.670;2023-04-30T03:25:13;101846.75;;;12.32;100.00
55916;BME280;41826;53.246;-6.670;2023-04-30T03:27:39;101839.19;;;12.39;100.00
55916;BME280;41826;53.246;-6.670;2023-04-30T03:30:05;101796.72;;;12.32;100.00
55916;BME280;41826;53.246;-6.670;2023-04-30T03:32:31;101819.28;;;12.46;100.00
55916;BME280;41826;53.246;-6.670;2023-04-30T03:34:56;101802.13;;;12.51;100.00
55916;BME280;41826;53.246;-6.670;2023-04-30T03:37:22;101764.81;;;12.46;100.00
55916;BME280;41826;53.246;-6.670;2023-04-30T03:39:47;101775.63;;;12.43;100.00
55916;BME280;41826;53.246;-6.670;2023-04-30T03:42:12;101773.38;;;12.39;100.00
55916;BME280;41826;53.246;-6.670;2023-04-30T03:44:38;101784.63;;;12.50;100.00
55916;BME280;41826;53.246;-6.670;2023-04-30T03:47:04;101710.56;;;12.65;100.00
55916;BME280;41826;53.246;-6.670;2023-04-30T03:49:29;101670.44;;;12.51;100.00
55916;BME280;41826;53.246;-6.670;2023-04-30T03:51:54;101691.34;;;12.43;100.00
55916;BME280;41826;53.246;-6.670;2023-04-30T03:54:20;101705.50;;;12.52;100.00
55916;BME280;41826;53.246;-6.670;2023-04-30T03:56:45;101695.38;;;12.47;100.00
55916;BME280;41826;53.246;-6.670;2023-04-30T03:59:11;101684.66;;;12.39;100.00
55916;BME280;41826;53.246;-6.670;2023-04-30T04:01:36;101696.63;;;12.53;100.00
55916;BME280;41826;53.246;-6.670;2023-04-30T04:04:02;101637.84;;;12.52;100.00
55916;BME280;41826;53.246;-6.670;2023-04-30T04:06:28;101613.78;;;12.67;100.00
55916;BME280;41826;53.246;-6.670;2023-04-30T04:08:53;101592.94;;;12.44;100.00
55916;BME280;41826;53.246;-6.670;2023-04-30T04:11:19;101580.47;;;12.46;100.00
55916;BME280;41826;53.246;-6.670;2023-04-30T04:13:44;101582.22;;;12.36;100.00
55916;BME280;41826;53.246;-6.670;2023-04-30T04:16:10;101634.09;;;12.45;100.00
55916;BME280;41826;53.246;-6.670;2023-04-30T04:18:35;101588.66;;;12.53;100.00
55916;BME280;41826;53.246;-6.670;2023-04-30T04:21:01;101550.00;;;12.53;100.00
55916;BME280;41826;53.246;-6.670;2023-04-30T04:23:26;101564.94;;;12.53;100.00
55916;BME280;41826;53.246;-6.670;2023-04-30T04:25:52;101592.72;;;12.26;100.00
55916;BME280;41826;53.246;-6.670;2023-04-30T04:28:18;101557.28;;;12.40;100.00
55916;BME280;41826;53.246;-6.670;2023-04-30T04:30:43;101577.38;;;12.31;100.00
55916;BME280;41826;53.246;-6.670;2023-04-30T04:33:09;101606.00;;;12.25;100.00
55916;BME280;41826;53.246;-6.670;2023-04-30T04:35:36;101674.47;;;12.25;100.00
55916;BME280;41826;53.246;-6.670;2023-04-30T04:38:01;101684.53;;;12.20;100.00
55916;BME280;41826;53.246;-6.670;2023-04-30T04:40:27;101725.50;;;12.33;100.00
55916;BME280;41826;53.246;-6.670;2023-04-30T04:42:53;101769.31;;;12.13;100.00
55916;BME280;41826;53.246;-6.670;2023-04-30T04:45:20;101793.25;;;12.31;100.00
55916;BME280;41826;53.246;-6.670;2023-04-30T04:47:46;101772.91;;;12.33;100.00
55916;BME280;41826;53.246;-6.670;2023-04-30T04:50:12;101769.69;;;12.30;100.00
55916;BME280;41826;53.246;-6.670;2023-04-30T04:52:37;101772.38;;;12.40;100.00
55916;BME280;41826;53.246;-6.670;2023-04-30T04:55:03;101720.38;;;12.32;100.00
55916;BME280;41826;53.246;-6.670;2023-04-30T04:57:29;101761.53;;;12.33;100.00
55916;BME280;41826;53.246;-6.670;2023-04-30T04:59:55;101776.94;;;12.38;100.00
55916;BME280;41826;53.246;-6.670;2023-04-30T05:02:20;101738.81;;;12.32;100.00
55916;BME280;41826;53.246;-6.670;2023-04-30T05:04:47;101726.47;;;12.32;100.00
55916;BME280;41826;53.246;-6.670;2023-04-30T05:07:15;101744.72;;;12.24;100.00
55916;BME280;41826;53.246;-6.670;2023-04-30T05:09:41;101758.13;;;12.42;100.00
55916;BME280;41826;53.246;-6.670;2023-04-30T05:12:06;101749.84;;;12.47;100.00
55916;BME280;41826;53.246;-6.670;2023-04-30T05:14:31;101728.78;;;12.47;100.00
55916;BME280;41826;53.246;-6.670;2023-04-30T05:16:57;101714.72;;;12.36;100.00
55916;BME280;41826;53.246;-6.670;2023-04-30T05:19:22;101759.47;;;12.36;100.00
55916;BME280;41826;53.246;-6.670;2023-04-30T05:21:48;101783.44;;;12.33;100.00
55916;BME280;41826;53.246;-6.670;2023-04-30T05:24:13;101790.63;;;12.31;100.00
55916;BME280;41826;53.246;-6.670;2023-04-30T05:26:38;101816.44;;;12.17;100.00
55916;BME280;41826;53.246;-6.670;2023-04-30T05:29:04;101857.34;;;12.21;100.00
55916;BME280;41826;53.246;-6.670;2023-04-30T05:31:29;101840.97;;;12.38;100.00
55916;BME280;41826;53.246;-6.670;2023-04-30T05:33:56;101851.56;;;12.27;100.00
55916;BME280;41826;53.246;-6.670;2023-04-30T05:36:21;101868.25;;;12.05;100.00
55916;BME280;41826;53.246;-6.670;2023-04-30T05:38:47;101894.44;;;12.18;100.00
55916;BME280;41826;53.246;-6.670;2023-04-30T05:41:12;101917.38;;;12.27;100.00
55916;BME280;41826;53.246;-6.670;2023-04-30T05:43:38;101895.59;;;12.36;100.00
55916;BME280;41826;53.246;-6.670;2023-04-30T05:46:03;101815.88;;;12.34;100.00
55916;BME280;41826;53.246;-6.670;2023-04-30T05:48:29;101831.50;;;12.14;100.00
55916;BME280;41826;53.246;-6.670;2023-04-30T05:50:55;101846.09;;;12.19;100.00
55916;BME280;41826;53.246;-6.670;2023-04-30T05:53:20;101852.94;;;12.10;100.00
55916;BME280;41826;53.246;-6.670;2023-04-30T05:55:46;101876.75;;;12.08;100.00
55916;BME280;41826;53.246;-6.670;2023-04-30T05:58:11;101882.44;;;12.25;100.00
55916;BME280;41826;53.246;-6.670;2023-04-30T06:00:36;101855.44;;;12.11;100.00
55916;BME280;41826;53.246;-6.670;2023-04-30T06:03:03;101904.94;;;12.29;100.00
55916;BME280;41826;53.246;-6.670;2023-04-30T06:05:28;101870.97;;;12.26;100.00
55916;BME280;41826;53.246;-6.670;2023-04-30T06:07:54;101886.59;;;12.39;100.00
55916;BME280;41826;53.246;-6.670;2023-04-30T06:10:19;101891.56;;;12.21;100.00
55916;BME280;41826;53.246;-6.670;2023-04-30T06:12:45;101957.16;;;12.01;100.00
55916;BME280;41826;53.246;-6.670;2023-04-30T06:15:10;102018.06;;;12.19;100.00
55916;BME280;41826;53.246;-6.670;2023-04-30T06:17:36;102063.63;;;12.20;100.00
55916;BME280;41826;53.246;-6.670;2023-04-30T06:20:01;102121.09;;;12.26;100.00
55916;BME280;41826;53.246;-6.670;2023-04-30T06:22:31;102123.25;;;12.21;100.00
55916;BME280;41826;53.246;-6.670;2023-04-30T06:24:56;102130.66;;;12.16;100.00
55916;BME280;41826;53.246;-6.670;2023-04-30T06:27:22;102146.09;;;12.20;100.00
55916;BME280;41826;53.246;-6.670;2023-04-30T06:29:48;102142.66;;;12.31;100.00
55916;BME280;41826;53.246;-6.670;2023-04-30T06:32:13;102132.72;;;12.46;100.00
55916;BME280;41826;53.246;-6.670;2023-04-30T06:34:38;102137.25;;;12.32;100.00
55916;BME280;41826;53.246;-6.670;2023-04-30T06:37:04;102151.00;;;12.13;100.00
55916;BME280;41826;53.246;-6.670;2023-04-30T06:39:29;102203.78;;;12.34;100.00
55916;BME280;41826;53.246;-6.670;2023-04-30T06:41:55;102209.34;;;12.54;100.00
55916;BME280;41826;53.246;-6.670;2023-04-30T06:44:20;102202.03;;;12.69;100.00
55916;BME280;41826;53.246;-6.670;2023-04-30T06:46:45;102134.50;;;12.56;100.00
55916;BME280;41826;53.246;-6.670;2023-04-30T06:49:11;102100.47;;;12.65;100.00
55916;BME280;41826;53.246;-6.670;2023-04-30T06:51:37;102090.91;;;12.64;100.00
55916;BME280;41826;53.246;-6.670;2023-04-30T06:54:03;102079.91;;;12.58;100.00
55916;BME280;41826;53.246;-6.670;2023-04-30T06:56:28;102022.50;;;12.62;100.00
55916;BME280;41826;53.246;-6.670;2023-04-30T06:58:53;102022.63;;;12.61;100.00
55916;BME280;41826;53.246;-6.670;2023-04-30T07:01:19;102034.84;;;12.62;100.00
55916;BME280;41826;53.246;-6.670;2023-04-30T07:03:44;102008.63;;;12.60;100.00
55916;BME280;41826;53.246;-6.670;2023-04-30T07:06:11;102039.06;;;12.53;100.00
55916;BME280;41826;53.246;-6.670;2023-04-30T07:08:37;101999.00;;;12.70;100.00
55916;BME280;41826;53.246;-6.670;2023-04-30T07:11:05;101960.03;;;12.85;100.00
55916;BME280;41826;53.246;-6.670;2023-04-30T07:13:30;101938.09;;;12.64;100.00
55916;BME280;41826;53.246;-6.670;2023-04-30T07:15:55;101923.88;;;12.76;100.00
55916;BME280;41826;53.246;-6.670;2023-04-30T07:18:21;101904.16;;;12.70;100.00
55916;BME280;41826;53.246;-6.670;2023-04-30T07:20:46;101922.06;;;12.55;100.00
55916;BME280;41826;53.246;-6.670;2023-04-30T07:23:12;101921.50;;;12.52;100.00
55916;BME280;41826;53.246;-6.670;2023-04-30T07:25:37;101921.00;;;12.79;100.00
55916;BME280;41826;53.246;-6.670;2023-04-30T07:28:03;101887.38;;;12.92;100.00
55916;BME280;41826;53.246;-6.670;2023-04-30T07:30:28;101851.59;;;12.90;100.00
55916;BME280;41826;53.246;-6.670;2023-04-30T07:32:54;101803.94;;;13.02;100.00
55916;BME280;41826;53.246;-6.670;2023-04-30T07:35:20;101714.50;;;13.20;100.00
55916;BME280;41826;53.246;-6.670;2023-04-30T07:37:45;101662.16;;;13.16;100.00
55916;BME280;41826;53.246;-6.670;2023-04-30T07:40:11;101577.69;;;13.27;100.00
55916;BME280;41826;53.246;-6.670;2023-04-30T07:42:40;101490.09;;;13.23;100.00
55916;BME280;41826;53.246;-6.670;2023-04-30T07:45:06;101493.69;;;13.22;100.00
55916;BME280;41826;53.246;-6.670;2023-04-30T07:47:32;101454.69;;;13.16;100.00
55916;BME280;41826;53.246;-6.670;2023-04-30T07:49:57;101486.78;;;13.12;100.00
55916;BME280;41826;53.246;-6.670;2023-04-30T07:52:23;101509.97;;;12.89;100.00
55916;BME280;41826;53.246;-6.670;2023-04-30T07:54:48;101543.38;;;13.08;100.00
55916;BME280;41826;53.246;-6.670;2023-04-30T07:57:14;101560.31;;;12.95;100.00
55916;BME280;41826;53.246;-6.670;2023-04-30T07:59:39;101581.41;;;13.15;100.00
55916;BME280;41826;53.246;-6.670;2023-04-30T08:02:06;101571.69;;;13.25;100.00
55916;BME280;41826;53.246;-6.670;2023-04-30T08:04:31;101539.78;;;13.38;100.00
55916;BME280;41826;53.246;-6.670;2023-04-30T08:06:58;101548.38;;;13.11;100.00
55916;BME280;41826;53.246;-6.670;2023-04-30T08:09:23;101545.06;;;13.48;100.00
55916;BME280;41826;53.246;-6.670;2023-04-30T08:11:49;101559.75;;;13.60;100.00
55916;BME280;41826;53.246;-6.670;2023-04-30T08:14:14;101484.63;;;13.92;100.00
55916;BME280;41826;53.246;-6.670;2023-04-30T08:16:40;101392.41;;;13.90;100.00
55916;BME280;41826;53.246;-6.670;2023-04-30T08:19:06;101352.50;;;13.75;100.00
55916;BME280;41826;53.246;-6.670;2023-04-30T08:21:31;101271.72;;;13.64;100.00
55916;BME280;41826;53.246;-6.670;2023-04-30T08:23:57;101238.84;;;13.95;100.00
55916;BME280;41826;53.246;-6.670;2023-04-30T08:26:24;101167.13;;;13.99;100.00
55916;BME280;41826;53.246;-6.670;2023-04-30T08:28:49;101066.19;;;13.79;100.00
55916;BME280;41826;53.246;-6.670;2023-04-30T08:31:16;101074.97;;;13.62;100.00
55916;BME280;41826;53.246;-6.670;2023-04-30T08:33:41;101112.84;;;13.53;100.00
55916;BME280;41826;53.246;-6.670;2023-04-30T08:36:07;101186.78;;;13.61;100.00
55916;BME280;41826;53.246;-6.670;2023-04-30T08:38:32;101148.78;;;13.72;100.00
55916;BME280;41826;53.246;-6.670;2023-04-30T08:41:10;101154.41;;;13.77;100.00
55916;BME280;41826;53.246;-6.670;2023-04-30T08:43:35;101165.97;;;13.76;100.00
55916;BME280;41826;53.246;-6.670;2023-04-30T08:46:02;101179.38;;;13.47;100.00
55916;BME280;41826;53.246;-6.670;2023-04-30T08:48:29;101213.84;;;13.63;100.00
55916;BME280;41826;53.246;-6.670;2023-04-30T08:51:03;101224.59;;;13.70;100.00
55916;BME280;41826;53.246;-6.670;2023-04-30T08:53:29;101179.81;;;13.96;100.00
55916;BME280;41826;53.246;-6.670;2023-04-30T08:55:56;101140.00;;;14.15;100.00
55916;BME280;41826;53.246;-6.670;2023-04-30T08:58:21;101089.72;;;14.25;100.00
55916;BME280;41826;53.246;-6.670;2023-04-30T09:00:47;100998.09;;;14.17;100.00
55916;BME280;41826;53.246;-6.670;2023-04-30T09:03:12;100935.59;;;14.34;100.00
55916;BME280;41826;53.246;-6.670;2023-04-30T09:05:38;100878.31;;;14.18;100.00
55916;BME280;41826;53.246;-6.670;2023-04-30T09:08:05;100926.81;;;14.17;100.00
55916;BME280;41826;53.246;-6.670;2023-04-30T09:10:32;100882.44;;;14.37;100.00
55916;BME280;41826;53.246;-6.670;2023-04-30T09:13:03;100825.97;;;14.22;100.00
55916;BME280;41826;53.246;-6.670;2023-04-30T09:15:30;100828.31;;;14.49;100.00
55916;BME280;41826;53.246;-6.670;2023-04-30T09:18:16;100840.03;;;14.47;100.00
55916;BME280;41826;53.246;-6.670;2023-04-30T09:21:02;100874.84;;;14.42;100.00
55916;BME280;41826;53.246;-6.670;2023-04-30T09:23:28;100809.94;;;14.97;100.00
55916;BME280;41826;53.246;-6.670;2023-04-30T09:25:54;100592.97;;;14.99;100.00
55916;BME280;41826;53.246;-6.670;2023-04-30T09:28:21;100385.59;;;15.01;100.00
55916;BME280;41826;53.246;-6.670;2023-04-30T09:30:51;100320.44;;;14.32;100.00
55916;BME280;41826;53.246;-6.670;2023-04-30T09:33:17;100379.25;;;14.72;100.00
55916;BME280;41826;53.246;-6.670;2023-04-30T09:35:43;100383.84;;;14.56;100.00
55916;BME280;41826;53.246;-6.670;2023-04-30T09:38:29;100408.53;;;14.86;100.00
55916;BME280;41826;53.246;-6.670;2023-04-30T09:40:57;100377.59;;;14.94;100.00
55916;BME280;41826;53.246;-6.670;2023-04-30T09:43:22;100285.53;;;15.13;100.00
55916;BME280;41826;53.246;-6.670;2023-04-30T09:45:48;100197.34;;;15.21;100.00
55916;BME280;41826;53.246;-6.670;2023-04-30T09:48:24;100035.03;;;15.22;100.00
55916;BME280;41826;53.246;-6.670;2023-04-30T09:50:50;99977.78;;;15.35;100.00
55916;BME280;41826;53.246;-6.670;2023-04-30T09:53:16;99957.06;;;15.39;100.00
55916;BME280;41826;53.246;-6.670;2023-04-30T09:55:47;99965.72;;;15.54;100.00
55916;BME280;41826;53.246;-6.670;2023-04-30T09:58:14;99950.66;;;15.55;100.00
55916;BME280;41826;53.246;-6.670;2023-04-30T10:00:41;99960.47;;;15.61;100.00
55916;BME280;41826;53.246;-6.670;2023-04-30T10:03:09;99932.53;;;15.52;100.00
55916;BME280;41826;53.246;-6.670;2023-04-30T10:05:37;99855.22;;;16.04;100.00
55916;BME280;41826;53.246;-6.670;2023-04-30T10:08:30;99768.06;;;15.96;100.00
55916;BME280;41826;53.246;-6.670;2023-04-30T10:11:01;99731.81;;;16.43;100.00
55916;BME280;41826;53.246;-6.670;2023-04-30T10:13:30;99598.03;;;16.66;100.00
55916;BME280;41826;53.246;-6.670;2023-04-30T10:16:00;99493.72;;;16.60;100.00
55916;BME280;41826;53.246;-6.670;2023-04-30T10:18:34;99499.78;;;16.29;100.00
55916;BME280;41826;53.246;-6.670;2023-04-30T10:21:02;99483.25;;;16.34;100.00
55916;BME280;41826;53.246;-6.670;2023-04-30T10:23:36;99412.97;;;16.63;100.00
55916;BME280;41826;53.246;-6.670;2023-04-30T10:26:02;99335.63;;;17.04;100.00
55916;BME280;41826;53.246;-6.670;2023-04-30T10:28:28;99290.31;;;17.06;100.00
55916;BME280;41826;53.246;-6.670;2023-04-30T10:30:55;99291.59;;;17.22;100.00
55916;BME280;41826;53.246;-6.670;2023-04-30T10:36:06;99178.09;;;17.24;100.00
55916;BME280;41826;53.246;-6.670;2023-04-30T10:38:37;99130.78;;;17.09;100.00
55916;BME280;41826;53.246;-6.670;2023-04-30T10:41:05;99119.47;;;17.02;100.00
55916;BME280;41826;53.246;-6.670;2023-04-30T10:43:31;99125.44;;;17.27;100.00
55916;BME280;41826;53.246;-6.670;2023-04-30T10:45:57;99099.34;;;17.13;100.00
55916;BME280;41826;53.246;-6.670;2023-04-30T10:48:23;99100.50;;;17.17;100.00
55916;BME280;41826;53.246;-6.670;2023-04-30T10:50:57;99088.41;;;16.90;100.00
55916;BME280;41826;53.246;-6.670;2023-04-30T10:53:23;99152.53;;;16.62;100.00
55916;BME280;41826;53.246;-6.670;2023-04-30T10:56:03;99198.63;;;16.80;100.00
55916;BME280;41826;53.246;-6.670;2023-04-30T10:58:37;99160.75;;;16.54;100.00
55916;BME280;41826;53.246;-6.670;2023-04-30T11:01:12;99165.84;;;17.11;100.00
55916;BME280;41826;53.246;-6.670;2023-04-30T11:04:03;99156.34;;;17.03;100.00
55916;BME280;41826;53.246;-6.670;2023-04-30T11:07:00;99116.03;;;16.64;100.00
55916;BME280;41826;53.246;-6.670;2023-04-30T11:09:42;99127.03;;;16.24;100.00
55916;BME280;41826;53.246;-6.670;2023-04-30T11:12:10;99155.69;;;16.71;100.00
55916;BME280;41826;53.246;-6.670;2023-04-30T11:14:40;99199.63;;;16.60;100.00
55916;BME280;41826;53.246;-6.670;2023-04-30T11:17:10;99212.47;;;16.38;100.00
55916;BME280;41826;53.246;-6.670;2023-04-30T11:19:41;99408.97;;;15.64;100.00
55916;BME280;41826;53.246;-6.670;2023-04-30T11:25:02;99628.34;;;14.42;100.00
55916;BME280;41826;53.246;-6.670;2023-04-30T11:27:30;99671.44;;;14.49;100.00
55916;BME280;41826;53.246;-6.670;2023-04-30T11:29:57;99789.19;;;14.16;100.00
55916;BME280;41826;53.246;-6.670;2023-04-30T11:32:24;99893.75;;;14.17;100.00
55916;BME280;41826;53.246;-6.670;2023-04-30T11:34:51;99985.22;;;14.24;100.00
55916;BME280;41826;53.246;-6.670;2023-04-30T11:37:24;100051.69;;;14.13;100.00
55916;BME280;41826;53.246;-6.670;2023-04-30T11:39:55;100076.97;;;14.52;100.00
55916;BME280;41826;53.246;-6.670;2023-04-30T11:42:21;100064.97;;;14.86;100.00
55916;BME280;41826;53.246;-6.670;2023-04-30T11:44:46;100099.19;;;15.09;100.00
55916;BME280;41826;53.246;-6.670;2023-04-30T11:47:12;100117.06;;;15.28;100.00
55916;BME280;41826;53.246;-6.670;2023-04-30T11:49:39;100154.56;;;15.53;100.00
55916;BME280;41826;53.246;-6.670;2023-04-30T11:52:04;100076.66;;;15.77;100.00
55916;BME280;41826;53.246;-6.670;2023-04-30T11:54:31;99996.41;;;16.12;100.00
55916;BME280;41826;53.246;-6.670;2023-04-30T11:56:56;99908.03;;;16.26;100.00
55916;BME280;41826;53.246;-6.670;2023-04-30T11:59:28;99833.28;;;16.57;100.00
55916;BME280;41826;53.246;-6.670;2023-04-30T12:01:54;99819.63;;;16.60;100.00
55916;BME280;41826;53.246;-6.670;2023-04-30T12:04:20;99732.41;;;16.79;100.00
55916;BME280;41826;53.246;-6.670;2023-04-30T12:06:46;99633.22;;;17.00;100.00
55916;BME280;41826;53.246;-6.670;2023-04-30T12:09:11;99532.13;;;16.89;100.00
55916;BME280;41826;53.246;-6.670;2023-04-30T12:11:37;99519.53;;;17.10;100.00
55916;BME280;41826;53.246;-6.670;2023-04-30T12:16:57;99237.19;;;17.31;100.00
55916;BME280;41826;53.246;-6.670;2023-04-30T12:19:24;99223.00;;;17.55;100.00
55916;BME280;41826;53.246;-6.670;2023-04-30T12:21:52;99208.53;;;17.70;100.00
55916;BME280;41826;53.246;-6.670;2023-04-30T12:24:19;99183.28;;;17.49;100.00
55916;BME280;41826;53.246;-6.670;2023-04-30T12:26:47;99127.50;;;17.67;100.00
55916;BME280;41826;53.246;-6.670;2023-04-30T12:29:17;99145.28;;;17.37;100.00
55916;BME280;41826;53.246;-6.670;2023-04-30T12:31:43;99126.84;;;17.00;100.00
55916;BME280;41826;53.246;-6.670;2023-04-30T12:34:13;99211.00;;;16.86;100.00
55916;BME280;41826;53.246;-6.670;2023-04-30T12:36:40;99169.94;;;17.25;100.00
55916;BME280;41826;53.246;-6.670;2023-04-30T12:39:11;99133.75;;;17.31;100.00
55916;BME280;41826;53.246;-6.670;2023-04-30T12:41:41;99078.19;;;17.48;100.00
55916;BME280;41826;53.246;-6.670;2023-04-30T12:44:24;99098.41;;;17.19;100.00
55916;BME280;41826;53.246;-6.670;2023-04-30T12:46:55;99062.53;;;17.04;100.00
55916;BME280;41826;53.246;-6.670;2023-04-30T12:49:26;99094.75;;;17.31;100.00
55916;BME280;41826;53.246;-6.670;2023-04-30T12:52:09;99131.22;;;17.36;100.00
55916;BME280;41826;53.246;-6.670;2023-04-30T12:54:36;99100.53;;;16.98;100.00
55916;BME280;41826;53.246;-6.670;2023-04-30T12:57:10;99074.03;;;16.98;100.00
55916;BME280;41826;53.246;-6.670;2023-04-30T12:59:55;99031.44;;;17.23;100.00